Time;durP1;ratioP1;P1;durP2;ratioP2;P2;SDS_P1;SDS_P2;PMS_P1;PMS_P2;Temp;Humidity;BMP_temperature;BMP_pressure;BME280_temperature;BME280_humidity;BME280_pressure;Samples;Min_cycle;Max_cycle;Signal;HPM_P1;HPM_P2
2023/08/20 00:01:43;;;;;;;7.60;5.80;;;;;;;22.77;100.00;100445.03;5029177;28;20217;-65
2023/08/20 00:04:09;;;;;;;6.13;5.20;;;;;;;22.80;100.00;100444.72;5034670;28;20217;-64
2023/08/20 00:06:34;;;;;;;6.07;5.47;;;;;;;22.78;100.00;100439.63;5032311;28;20196;-65
2023/08/20 00:09:00;;;;;;;10.13;5.80;;;;;;;22.56;100.00;100446.22;5030988;28;20220;-64
2023/08/20 00:11:25;;;;;;;6.50;5.13;;;;;;;22.44;100.00;100436.94;5032322;28;20260;-63
2023/08/20 00:13:50;;;;;;;5.70;5.20;;;;;;;22.40;100.00;100442.50;5036862;28;20235;-63
2023/08/20 00:16:16;;;;;;;5.70;5.20;;;;;;;22.42;100.00;100447.59;5032154;28;20178;-64
2023/08/20 00:18:41;;;;;;;6.33;5.17;;;;;;;22.40;100.00;100454.78;5032431;28;20190;-64
2023/08/20 00:21:08;;;;;;;6.07;5.43;;;;;;;22.45;100.00;100452.53;5030440;28;20306;-63
2023/08/20 00:23:37;;;;;;;7.37;5.27;;;;;;;22.51;100.00;100461.56;5039459;28;20174;-63
2023/08/20 00:26:02;;;;;;;5.50;5.00;;;;;;;22.59;100.00;100453.78;5028959;28;20178;-64
2023/08/20 00:28:28;;;;;;;6.67;5.27;;;;;;;22.59;100.00;100451.16;5018612;28;20653;-63
2023/08/20 00:30:53;;;;;;;8.90;5.20;;;;;;;22.55;100.00;100457.66;5028695;28;20229;-63
2023/08/20 00:33:18;;;;;;;5.90;5.27;;;;;;;22.58;100.00;100457.38;5040721;28;20193;-63
2023/08/20 00:35:43;;;;;;;7.13;5.47;;;;;;;22.52;100.00;100455.38;5030238;28;20193;-63
2023/08/20 00:38:09;;;;;;;9.23;5.83;;;;;;;22.52;100.00;100455.38;5030598;28;20188;-64
2023/08/20 00:40:34;;;;;;;6.00;5.20;;;;;;;22.45;100.00;100456.94;5025720;28;20229;-63
2023/08/20 00:43:00;;;;;;;10.30;6.07;;;;;;;22.50;100.00;100449.44;5043238;28;20668;-63
2023/08/20 00:45:26;;;;;;;5.83;5.17;;;;;;;22.50;100.00;100450.28;5031498;28;20196;-63
2023/08/20 00:47:52;;;;;;;8.27;5.87;;;;;;;22.47;100.00;100453.19;5031676;28;20206;-63
2023/08/20 00:50:18;;;;;;;8.20;6.10;;;;;;;22.42;100.00;100452.84;5023817;28;20193;-63
2023/08/20 00:52:44;;;;;;;8.43;5.50;;;;;;;22.34;100.00;100453.56;5045074;28;20192;-64
2023/08/20 00:55:11;;;;;;;7.63;5.80;;;;;;;22.28;100.00;100456.78;5031008;28;20658;-63
2023/08/20 00:57:37;;;;;;;7.03;6.43;;;;;;;22.28;100.00;100448.09;5031979;28;20202;-65
2023/08/20 01:00:07;;;;;;;6.10;5.60;;;;;;;22.24;100.00;100445.78;5026399;28;20635;-63
2023/08/20 01:02:34;;;;;;;10.10;5.20;;;;;;;22.22;100.00;100452.97;5045878;28;20194;-64
2023/08/20 01:05:00;;;;;;;7.57;5.60;;;;;;;22.17;100.00;100441.31;5029414;28;20172;-64
2023/08/20 01:07:48;;;;;;;6.90;5.60;;;;;;;22.12;100.00;100449.63;5031415;28;20206;-64
2023/08/20 01:10:23;;;;;;;6.47;5.57;;;;;;;22.00;100.00;100446.38;5022981;28;20190;-64
2023/08/20 01:12:49;;;;;;;7.10;6.40;;;;;;;21.84;100.00;100444.44;5043339;28;20185;-64
2023/08/20 01:15:15;;;;;;;6.77;5.87;;;;;;;21.71;100.00;100444.00;5031258;28;20268;-64
2023/08/20 01:17:41;;;;;;;9.80;5.77;;;;;;;21.64;100.00;100443.75;5031275;28;20293;-64
2023/08/20 01:20:11;;;;;;;6.67;5.87;;;;;;;21.66;100.00;100439.22;5021211;28;20637;-64
2023/08/20 01:23:05;;;;;;;7.67;5.63;;;;;;;21.57;100.00;100433.06;5029069;28;20186;-63
2023/08/20 01:26:04;;;;;;;6.77;6.03;;;;;;;21.45;100.00;100432.41;5017825;28;20551;-64
2023/08/20 01:28:31;;;;;;;6.53;5.80;;;;;;;21.51;100.00;100435.41;5018188;28;20542;-64
2023/08/20 01:30:58;;;;;;;6.93;6.07;;;;;;;21.42;100.00;100437.09;5016957;28;20225;-63
2023/08/20 01:33:24;;;;;;;6.90;5.93;;;;;;;21.44;100.00;100437.78;5027049;28;20634;-64
2023/08/20 01:35:51;;;;;;;7.90;6.47;;;;;;;21.43;100.00;100442.22;5036890;28;20186;-64
2023/08/20 01:38:16;;;;;;;8.10;6.10;;;;;;;21.40;100.00;100450.34;5038006;28;20184;-64
2023/08/20 01:40:42;;;;;;;6.90;5.83;;;;;;;21.35;100.00;100449.97;5024103;28;20233;-64
2023/08/20 01:43:07;;;;;;;8.33;7.00;;;;;;;21.29;100.00;100448.72;5028266;28;20264;-63
2023/08/20 01:45:32;;;;;;;6.77;5.83;;;;;;;21.25;100.00;100451.81;5017611;28;20206;-64
2023/08/20 01:47:58;;;;;;;8.67;6.50;;;;;;;21.17;100.00;100452.50;5017912;28;20265;-63
2023/08/20 01:50:23;;;;;;;9.37;7.47;;;;;;;21.11;100.00;100463.53;5013663;28;20189;-64
2023/08/20 01:52:48;;;;;;;7.87;6.27;;;;;;;21.08;100.00;100469.88;5047214;28;20177;-64
2023/08/20 01:55:14;;;;;;;8.40;6.00;;;;;;;21.02;100.00;100465.22;5037324;28;20194;-64
2023/08/20 01:57:39;;;;;;;9.77;6.23;;;;;;;20.98;100.00;100478.75;5037305;28;20197;-64
2023/08/20 02:00:05;;;;;;;8.23;6.50;;;;;;;20.90;100.00;100482.06;5028029;28;20676;-64
2023/08/20 02:02:31;;;;;;;8.30;6.93;;;;;;;20.85;100.00;100481.66;5032618;28;20240;-64
2023/08/20 02:04:56;;;;;;;12.30;7.17;;;;;;;20.75;100.00;100479.06;5017662;28;20586;-64
2023/08/20 02:07:21;;;;;;;10.93;6.60;;;;;;;20.71;100.00;100483.75;5017769;28;20191;-64
2023/08/20 02:09:47;;;;;;;7.60;6.30;;;;;;;20.63;100.00;100483.63;5017740;28;20233;-64
2023/08/20 02:12:12;;;;;;;7.53;6.47;;;;;;;20.61;100.00;100494.19;5039496;28;20225;-65
2023/08/20 02:14:37;;;;;;;11.53;6.97;;;;;;;20.57;100.00;100490.22;5036044;28;20657;-65
2023/08/20 02:17:03;;;;;;;11.23;7.03;;;;;;;20.54;100.00;100482.66;5037601;28;20177;-64
2023/08/20 02:19:28;;;;;;;12.87;7.03;;;;;;;20.49;100.00;100484.84;5037861;28;20220;-65
2023/08/20 02:21:53;;;;;;;8.23;7.03;;;;;;;20.44;100.00;100482.66;5025446;28;20225;-64
2023/08/20 02:24:19;;;;;;;10.77;7.30;;;;;;;20.41;100.00;100477.69;5018472;28;20321;-65
2023/08/20 02:26:44;;;;;;;11.47;6.67;;;;;;;20.35;100.00;100474.84;5017166;28;20187;-65
2023/08/20 02:29:09;;;;;;;12.40;7.03;;;;;;;20.39;100.00;100478.81;5018191;28;20257;-64
2023/08/20 02:31:35;;;;;;;8.40;7.00;;;;;;;20.28;100.00;100477.16;5019302;28;20217;-64
2023/08/20 02:34:00;;;;;;;8.17;6.73;;;;;;;20.34;100.00;100478.41;5018738;28;20198;-65
2023/08/20 02:36:26;;;;;;;8.77;6.67;;;;;;;20.34;100.00;100479.22;5014215;28;20171;-64
2023/08/20 02:38:51;;;;;;;8.73;6.90;;;;;;;20.31;100.00;100469.06;5014615;28;20187;-64
2023/08/20 02:41:16;;;;;;;7.90;7.10;;;;;;;20.27;100.00;100472.91;5013619;28;20260;-65
2023/08/20 02:43:41;;;;;;;7.80;7.10;;;;;;;20.16;100.00;100469.47;5020419;28;20197;-65
2023/08/20 02:46:07;;;;;;;8.03;7.00;;;;;;;20.14;100.00;100476.63;5012632;28;20231;-65
2023/08/20 02:48:32;;;;;;;7.20;6.50;;;;;;;20.10;100.00;100469.19;5014552;28;20262;-64
2023/08/20 02:50:57;;;;;;;8.67;7.10;;;;;;;19.98;100.00;100471.09;5017469;28;20300;-64
2023/08/20 02:53:22;;;;;;;10.10;6.40;;;;;;;19.91;100.00;100472.59;5042759;28;20174;-64
2023/08/20 02:55:48;;;;;;;7.00;6.27;;;;;;;19.87;100.00;100476.44;5032703;28;20256;-64
2023/08/20 02:58:13;;;;;;;9.40;6.90;;;;;;;19.94;100.00;100469.72;5034255;28;20928;-64
2023/08/20 03:00:38;;;;;;;10.73;6.90;;;;;;;19.99;100.00;100473.59;5028569;28;20237;-64
2023/08/20 03:03:08;;;;;;;9.80;7.03;;;;;;;20.09;100.00;100470.16;5044690;28;20281;-64
2023/08/20 03:05:34;;;;;;;9.60;7.00;;;;;;;20.16;100.00;100463.41;5033389;28;20189;-64
2023/08/20 03:07:59;;;;;;;8.30;7.23;;;;;;;20.02;100.00;100462.06;5033695;28;20190;-64
2023/08/20 03:10:29;;;;;;;7.93;7.30;;;;;;;20.09;100.00;100470.97;5026617;28;20245;-65
2023/08/20 03:12:55;;;;;;;8.13;7.00;;;;;;;20.11;100.00;100471.66;5046128;28;20197;-63
2023/08/20 03:15:20;;;;;;;8.53;7.63;;;;;;;20.11;100.00;100471.66;5033484;28;20186;-65
2023/08/20 03:17:45;;;;;;;8.27;7.47;;;;;;;20.05;100.00;100466.97;5031886;28;20186;-63
2023/08/20 03:20:11;;;;;;;7.30;6.53;;;;;;;20.05;100.00;100461.75;5023275;28;20218;-65
2023/08/20 03:22:38;;;;;;;9.33;7.47;;;;;;;20.10;100.00;100462.16;5027774;28;20179;-65
2023/08/20 03:25:04;;;;;;;8.03;7.23;;;;;;;20.09;100.00;100470.97;5013304;28;20194;-64
2023/08/20 03:27:29;;;;;;;9.07;7.70;;;;;;;20.07;100.00;100470.28;5013546;28;20586;-64
2023/08/20 03:29:54;;;;;;;12.23;8.07;;;;;;;19.99;100.00;100463.16;5013422;28;20277;-64
2023/08/20 03:32:20;;;;;;;8.27;7.47;;;;;;;19.87;100.00;100466.84;5001560;28;20709;-65
2023/08/20 03:34:45;;;;;;;8.40;7.60;;;;;;;19.84;100.00;100474.94;5032763;28;20243;-64
2023/08/20 03:37:10;;;;;;;10.90;7.53;;;;;;;19.84;100.00;100480.16;5033123;28;20247;-64
2023/08/20 03:39:35;;;;;;;8.13;7.43;;;;;;;19.85;100.00;100484.41;5033322;28;20170;-65
2023/08/20 03:42:01;;;;;;;7.90;7.10;;;;;;;19.78;100.00;100472.81;5022237;28;20296;-64
2023/08/20 03:44:26;;;;;;;8.23;7.33;;;;;;;19.71;100.00;100474.31;5013577;28;20642;-65
2023/08/20 03:46:51;;;;;;;8.87;7.57;;;;;;;19.73;100.00;100475.84;5012585;28;20181;-64
2023/08/20 03:49:17;;;;;;;8.03;7.30;;;;;;;19.74;100.00;100477.50;5013375;28;20178;-64
2023/08/20 03:51:42;;;;;;;7.80;7.07;;;;;;;19.75;100.00;100481.75;5015078;28;20654;-64
2023/08/20 03:54:08;;;;;;;7.87;7.07;;;;;;;19.74;100.00;100476.69;5015148;28;20207;-65
2023/08/20 03:56:33;;;;;;;8.10;7.17;;;;;;;19.79;100.00;100487.53;5013059;28;20183;-64
2023/08/20 03:58:59;;;;;;;7.23;6.63;;;;;;;19.78;100.00;100485.88;5013231;28;20261;-64
2023/08/20 04:01:24;;;;;;;8.57;7.40;;;;;;;19.76;100.00;100490.41;5024545;28;20236;-64
2023/08/20 04:03:49;;;;;;;8.30;6.80;;;;;;;19.81;100.00;100489.03;5037158;28;20261;-64
2023/08/20 04:06:15;;;;;;;8.30;7.60;;;;;;;19.83;100.00;100495.00;5032379;28;20521;-64
2023/08/20 04:08:40;;;;;;;9.37;7.10;;;;;;;19.88;100.00;100496.38;5032667;28;21020;-64
2023/08/20 04:11:06;;;;;;;9.17;7.47;;;;;;;19.91;100.00;100490.88;5030151;28;20620;-64
2023/08/20 04:13:31;;;;;;;9.20;7.43;;;;;;;19.94;100.00;100496.66;5039264;28;20181;-64
2023/08/20 04:15:57;;;;;;;8.10;7.13;;;;;;;19.96;100.00;100499.97;5032150;28;20228;-64
2023/08/20 04:18:22;;;;;;;7.47;6.67;;;;;;;19.93;100.00;100492.41;5032312;28;20205;-65
2023/08/20 04:20:50;;;;;;;7.43;6.80;;;;;;;19.96;100.00;100499.97;5018194;28;20277;-64
2023/08/20 04:23:15;;;;;;;8.63;6.90;;;;;;;20.03;100.00;100508.06;5021952;28;20596;-64
2023/08/20 04:25:41;;;;;;;7.70;6.90;;;;;;;20.05;100.00;100513.97;5011501;28;20210;-65
2023/08/20 04:28:06;;;;;;;8.67;7.17;;;;;;;20.07;100.00;100517.28;5012845;28;20240;-65
2023/08/20 04:30:31;;;;;;;10.50;6.97;;;;;;;20.10;100.00;100511.78;5010032;28;20324;-64
2023/08/20 04:32:57;;;;;;;8.27;7.40;;;;;;;20.10;100.00;100508.38;5043934;28;20174;-64
2023/08/20 04:35:22;;;;;;;8.57;7.63;;;;;;;20.11;100.00;100510.03;5030202;28;20174;-64
2023/08/20 04:37:47;;;;;;;8.10;7.30;;;;;;;20.13;100.00;100511.53;5032079;28;20650;-64
2023/08/20 04:40:13;;;;;;;8.03;7.23;;;;;;;20.19;100.00;100507.53;5021686;28;20194;-64
2023/08/20 04:42:38;;;;;;;8.83;7.57;;;;;;;20.13;100.00;100513.31;5026141;28;20649;-64
2023/08/20 04:45:04;;;;;;;8.23;7.30;;;;;;;20.20;100.00;100505.75;5011890;28;20179;-64
2023/08/20 04:47:29;;;;;;;11.07;7.80;;;;;;;20.28;100.00;100508.50;5011203;28;20175;-63
2023/08/20 04:49:54;;;;;;;9.77;7.37;;;;;;;20.36;100.00;100518.28;5011743;28;20186;-64
2023/08/20 04:52:20;;;;;;;9.30;7.43;;;;;;;20.39;100.00;100528.44;5015369;28;20316;-63
2023/08/20 04:54:46;;;;;;;11.70;7.97;;;;;;;20.50;100.00;100528.31;5011445;28;20199;-64
2023/08/20 04:57:11;;;;;;;10.03;7.60;;;;;;;20.53;100.00;100524.59;5011724;28;20233;-62
2023/08/20 04:59:36;;;;;;;8.70;7.53;;;;;;;20.53;100.00;100522.81;5011898;28;20186;-62
2023/08/20 05:02:02;;;;;;;9.63;7.80;;;;;;;20.57;100.00;100518.94;5032499;28;20232;-64
2023/08/20 05:04:27;;;;;;;9.20;8.40;;;;;;;20.61;100.00;100525.53;5031668;28;20251;-63
2023/08/20 05:06:52;;;;;;;8.47;7.60;;;;;;;20.63;100.00;100534.09;5031438;28;20194;-64
2023/08/20 05:09:17;;;;;;;8.67;7.70;;;;;;;20.64;100.00;100533.13;5031658;28;20175;-63
2023/08/20 05:11:43;;;;;;;7.70;6.90;;;;;;;20.75;100.00;100537.41;5021113;28;20743;-63
2023/08/20 05:14:08;;;;;;;9.23;7.57;;;;;;;20.67;100.00;100532.03;5014352;28;20210;-63
2023/08/20 05:16:33;;;;;;;8.10;7.40;;;;;;;20.67;100.00;100524.19;5012126;28;20182;-64
2023/08/20 05:18:58;;;;;;;8.57;7.30;;;;;;;20.71;100.00;100529.94;5011839;28;20233;-64
2023/08/20 05:21:24;;;;;;;7.40;6.70;;;;;;;20.74;100.00;100527.91;5022741;28;20240;-63
2023/08/20 05:23:49;;;;;;;12.10;6.90;;;;;;;21.07;100.00;100530.19;5036303;28;20181;-63
2023/08/20 05:26:14;;;;;;;10.80;6.33;;;;;;;21.33;100.00;100526.94;5031123;28;20261;-62
2023/08/20 05:28:40;;;;;;;7.90;6.43;;;;;;;21.37;100.00;100533.53;5030097;28;20181;-63
2023/08/20 05:31:05;;;;;;;8.63;6.57;;;;;;;21.64;100.00;100538.00;5021118;28;20255;-63
2023/08/20 05:33:30;;;;;;;9.63;6.70;;;;;;;21.95;100.00;100540.31;5018885;28;20547;-63
2023/08/20 05:35:56;;;;;;;6.70;6.10;;;;;;;22.13;100.00;100539.50;5011017;28;20269;-62
2023/08/20 05:38:21;;;;;;;8.33;6.53;;;;;;;22.34;100.00;100536.59;5011503;28;20662;-62
2023/08/20 05:40:46;;;;;;;7.83;6.43;;;;;;;22.52;100.00;100541.88;5012872;28;20256;-62
2023/08/20 05:43:11;;;;;;;7.20;6.43;;;;;;;22.76;100.00;100548.28;5041344;28;20620;-63
2023/08/20 05:45:37;;;;;;;8.73;6.10;;;;;;;22.88;100.00;100549.69;5028304;28;20197;-62
2023/08/20 05:48:02;;;;;;;6.80;5.57;;;;;;;22.97;100.00;100548.78;5031049;28;20192;-63
2023/08/20 05:50:27;;;;;;;6.30;5.70;;;;;;;22.97;100.00;100543.53;5024662;28;20236;-63
2023/08/20 05:52:53;;;;;;;10.50;6.73;;;;;;;23.16;100.00;100549.56;5042785;28;20188;-63
2023/08/20 05:55:18;;;;;;;9.47;6.30;;;;;;;23.33;100.00;100558.34;5030576;28;20202;-63
2023/08/20 05:57:44;;;;;;;6.30;5.33;;;;;;;23.39;100.00;100552.47;5030977;28;20261;-62
2023/08/20 06:00:10;;;;;;;6.67;5.93;;;;;;;23.29;100.00;100552.56;5021079;28;20233;-63
2023/08/20 06:02:36;;;;;;;9.87;6.10;;;;;;;23.35;100.00;100553.75;5042320;28;20660;-64
2023/08/20 06:05:01;;;;;;;7.63;5.83;;;;;;;23.49;100.00;100554.97;5030542;28;20182;-63
2023/08/20 06:07:27;;;;;;;8.93;5.80;;;;;;;23.71;100.00;100555.41;5030952;28;20232;-64
2023/08/20 06:09:53;;;;;;;7.80;5.63;;;;;;;23.81;100.00;100546.38;5032761;28;20178;-64
2023/08/20 06:12:18;;;;;;;7.30;5.73;;;;;;;23.84;100.00;100548.72;5038727;28;20275;-64
2023/08/20 06:14:43;;;;;;;7.00;5.77;;;;;;;23.91;100.00;100550.69;5034367;28;20608;-63
2023/08/20 06:17:09;;;;;;;5.97;5.30;;;;;;;23.79;100.00;100558.03;5034687;28;20201;-63
2023/08/20 06:19:34;;;;;;;6.27;5.60;;;;;;;23.90;100.00;100562.19;5034762;28;20653;-63
2023/08/20 06:21:59;;;;;;;9.00;5.80;;;;;;;23.93;100.00;100561.91;5013562;28;20230;-62
2023/08/20 06:24:25;;;;;;;16.63;8.55;;;;;;;23.84;100.00;100556.59;4999201;28;20592;-63
2023/08/20 06:26:51;;;;;;;7.28;5.95;;;;;;;23.84;100.00;100561.00;5012258;28;20191;-64
2023/08/20 06:29:17;;;;;;;7.27;4.67;;;;;;;23.79;100.00;100558.88;5007865;28;20222;-63
2023/08/20 06:31:42;;;;;;;6.20;5.70;;;;;;;23.89;100.00;100564.00;5022168;28;20281;-64
2023/08/20 06:34:07;;;;;;;6.00;5.30;;;;;;;24.31;100.00;100557.03;5034841;28;20631;-63
2023/08/20 06:36:33;;;;;;;6.65;5.30;;;;;;;24.81;100.00;100555.28;5032519;28;20182;-65
2023/08/20 06:38:58;;;;;;;8.98;5.35;;;;;;;25.38;100.00;100571.94;5032769;28;20178;-65
2023/08/20 06:41:24;;;;;;;5.10;4.38;;;;;;;25.79;100.00;100574.44;5013582;28;20260;-65
2023/08/20 06:43:49;;;;;;;7.88;4.88;;;;;;;26.39;100.00;100580.84;5018010;28;20233;-64
2023/08/20 06:46:14;;;;;;;6.60;5.32;;;;;;;26.81;100.00;100577.94;5012591;28;20213;-64
2023/08/20 06:48:39;;;;;;;5.18;4.68;;;;;;;27.73;100.00;100578.59;5013006;28;20238;-64
2023/08/20 06:51:12;;;;;;;7.40;5.13;;;;;;;27.85;100.00;100585.06;5008512;28;20250;-64
2023/08/20 06:53:37;;;;;;;6.05;4.57;;;;;;;28.90;100.00;100581.97;5019662;28;20221;-65
2023/08/20 06:56:03;;;;;;;7.50;4.78;;;;;;;28.87;100.00;100585.84;5013661;28;20210;-64
2023/08/20 06:58:28;;;;;;;9.63;4.95;;;;;;;27.56;100.00;100591.19;5014204;28;20606;-64
2023/08/20 07:00:53;;;;;;;7.90;5.18;;;;;;;27.50;100.00;100584.81;5010273;28;20225;-65
2023/08/20 07:03:19;;;;;;;5.03;4.13;;;;;;;28.71;100.00;100591.41;5022877;28;20190;-65
2023/08/20 07:05:44;;;;;;;8.77;5.65;;;;;;;29.86;100.00;100593.72;5013027;28;20542;-65
2023/08/20 07:08:09;;;;;;;6.68;4.32;;;;;;;30.25;99.94;100589.53;5013718;28;20908;-63
2023/08/20 07:10:35;;;;;;;7.25;4.57;;;;;;;29.77;100.00;100593.88;5012230;28;20225;-64
2023/08/20 07:13:00;;;;;;;5.00;4.50;;;;;;;29.26;100.00;100588.94;5034290;28;20191;-63
2023/08/20 07:15:25;;;;;;;6.40;4.78;;;;;;;30.37;100.00;100587.13;5028825;28;20182;-63
2023/08/20 07:17:50;;;;;;;5.15;4.53;;;;;;;31.76;94.15;100583.66;5033270;28;20282;-63
2023/08/20 07:20:16;;;;;;;8.75;4.45;;;;;;;31.82;87.98;100588.13;5022893;28;20226;-64
2023/08/20 07:22:42;;;;;;;6.20;4.72;;;;;;;32.05;87.68;100590.22;5027311;28;20187;-64
2023/08/20 07:25:08;;;;;;;6.07;4.38;;;;;;;32.99;82.95;100593.00;5012903;28;20235;-64
2023/08/20 07:27:33;;;;;;;6.53;4.30;;;;;;;34.78;69.15;100601.69;5013681;28;20337;-65
2023/08/20 07:29:58;;;;;;;5.70;4.60;;;;;;;36.25;59.25;100609.44;5013178;28;20183;-63
2023/08/20 07:32:23;;;;;;;7.25;4.57;;;;;;;37.05;52.07;100608.50;5015391;28;20719;-64
2023/08/20 07:34:49;;;;;;;4.28;3.88;;;;;;;37.44;48.67;100603.88;5012816;28;20288;-63
2023/08/20 07:37:14;;;;;;;9.27;4.68;;;;;;;37.86;47.18;100609.69;5013377;28;20197;-64
2023/08/20 07:39:40;;;;;;;5.88;3.85;;;;;;;37.25;50.12;100611.44;5013222;28;20211;-65
2023/08/20 07:42:06;;;;;;;7.88;4.10;;;;;;;37.81;46.90;100612.31;5025505;28;20229;-64
2023/08/20 07:44:31;;;;;;;5.90;4.13;;;;;;;37.44;46.62;100606.56;5028997;28;20235;-64
2023/08/20 07:46:56;;;;;;;6.20;4.75;;;;;;;38.23;45.59;100615.16;5033196;28;20174;-64
2023/08/20 07:49:21;;;;;;;5.80;4.28;;;;;;;37.64;47.07;100613.22;5032591;28;20231;-64
2023/08/20 07:51:48;;;;;;;8.25;4.30;;;;;;;39.58;41.80;100626.66;5022041;28;20218;-64
2023/08/20 07:54:13;;;;;;;4.38;3.97;;;;;;;40.42;37.25;100615.72;5014557;28;20694;-64
2023/08/20 07:56:38;;;;;;;5.63;4.28;;;;;;;39.79;38.28;100617.56;5013173;28;20205;-63
2023/08/20 07:59:04;;;;;;;5.93;4.28;;;;;;;39.46;38.85;100621.50;5012895;28;20186;-63
2023/08/20 08:01:29;;;;;;;6.53;3.90;;;;;;;40.88;35.91;100623.72;5025778;28;20701;-63
2023/08/20 08:03:54;;;;;;;5.63;3.85;;;;;;;40.77;36.09;100620.22;5023477;28;20190;-64
2023/08/20 08:06:22;;;;;;;7.68;4.38;;;;;;;40.52;36.58;100618.38;5032196;28;20689;-64
2023/08/20 08:08:48;;;;;;;5.55;3.92;;;;;;;40.88;36.44;100622.91;5032474;28;20178;-65
2023/08/20 08:11:13;;;;;;;5.88;3.92;;;;;;;40.80;36.22;100622.41;5021887;28;20323;-64
2023/08/20 08:13:38;;;;;;;6.40;4.20;;;;;;;39.17;37.36;100620.03;5018517;28;20615;-64
2023/08/20 08:16:04;;;;;;;7.47;4.40;;;;;;;38.82;39.15;100621.50;5010813;28;20236;-64
2023/08/20 08:18:29;;;;;;;5.75;4.25;;;;;;;38.47;42.20;100617.50;5012473;28;20186;-65
2023/08/20 08:20:54;;;;;;;6.07;5.15;;;;;;;39.42;39.30;100621.22;5011369;28;20237;-65
2023/08/20 08:23:20;;;;;;;6.70;4.25;;;;;;;37.77;42.85;100612.84;5028107;28;20183;-65
2023/08/20 08:25:45;;;;;;;6.93;4.65;;;;;;;38.15;41.33;100617.50;5031499;28;20182;-64
2023/08/20 08:28:10;;;;;;;5.07;4.32;;;;;;;37.49;43.51;100616.56;5032510;28;20193;-64
2023/08/20 08:30:37;;;;;;;4.40;4.00;;;;;;;37.22;43.95;100611.91;5021637;28;20678;-64
2023/08/20 08:33:02;;;;;;;13.13;4.18;;;;;;;36.86;44.85;100616.81;5022095;28;20214;-63
2023/08/20 08:35:29;;;;;;;7.60;4.47;;;;;;;37.21;44.39;100615.66;5011861;28;20223;-64
2023/08/20 08:37:54;;;;;;;4.85;4.10;;;;;;;37.41;44.84;100612.47;5011907;28;20711;-64
2023/08/20 08:40:19;;;;;;;10.45;4.10;;;;;;;38.33;41.63;100609.06;5006890;28;20226;-64
2023/08/20 08:42:50;;;;;;;9.77;4.45;;;;;;;38.39;39.57;100618.78;5031713;28;20186;-64
2023/08/20 08:45:17;;;;;;;8.27;4.57;;;;;;;38.69;39.28;100614.69;5030193;28;20188;-65
2023/08/20 08:47:43;;;;;;;6.75;3.80;;;;;;;38.73;40.08;100613.09;5031410;28;20196;-64
2023/08/20 08:50:09;;;;;;;5.85;4.20;;;;;;;39.13;38.62;100610.88;5021284;28;20257;-64
2023/08/20 08:52:37;;;;;;;6.18;3.75;;;;;;;39.99;36.84;100616.78;5026543;28;20585;-63
2023/08/20 08:55:04;;;;;;;5.57;3.90;;;;;;;39.68;35.08;100618.63;5011509;28;20232;-64
2023/08/20 08:57:30;;;;;;;3.90;3.60;;;;;;;38.78;35.64;100620.41;5011874;28;20175;-64
2023/08/20 08:59:56;;;;;;;5.95;3.67;;;;;;;38.68;37.62;100615.75;5011740;28;20262;-63
2023/08/20 09:02:23;;;;;;;6.38;3.90;;;;;;;39.92;35.99;100618.94;5035640;28;20390;-64
2023/08/20 09:04:48;;;;;;;5.78;3.72;;;;;;;40.38;35.51;100618.16;5030930;28;20178;-64
2023/08/20 09:07:14;;;;;;;5.13;3.42;;;;;;;40.80;34.12;100618.91;5031596;28;20182;-63
2023/08/20 09:09:44;;;;;;;5.25;4.07;;;;;;;40.85;33.82;100618.06;5031459;28;20190;-63
2023/08/20 09:12:14;;;;;;;4.80;3.45;;;;;;;40.83;33.78;100618.34;5020187;28;20383;-63
2023/08/20 09:14:43;;;;;;;3.67;3.38;;;;;;;40.27;33.99;100616.53;5011334;28;20540;-65
2023/08/20 09:17:08;;;;;;;8.57;3.83;;;;;;;39.24;36.29;100622.53;5011516;28;20221;-64
2023/08/20 09:19:39;;;;;;;6.25;3.88;;;;;;;36.88;40.10;100614.72;5012050;28;20653;-64
2023/08/20 09:22:04;;;;;;;3.67;3.33;;;;;;;38.06;39.52;100625.22;5000012;28;20401;-64
2023/08/20 09:24:38;;;;;;;4.53;3.60;;;;;;;39.22;36.65;100622.81;5001654;28;20646;-64
2023/08/20 09:27:04;;;;;;;6.07;4.10;;;;;;;39.49;37.15;100629.88;4999632;28;20186;-64
2023/08/20 09:29:33;;;;;;;5.82;4.18;;;;;;;40.01;35.09;100625.41;5011677;28;20182;-65
2023/08/20 09:32:02;;;;;;;4.53;4.07;;;;;;;39.65;35.95;100611.88;5015716;28;20312;-64
2023/08/20 09:34:39;;;;;;;5.63;4.40;;;;;;;39.63;35.42;100621.28;5010036;28;20290;-62
2023/08/20 09:37:08;;;;;;;8.80;4.28;;;;;;;39.38;36.39;100620.97;4998891;28;20186;-64
2023/08/20 09:39:33;;;;;;;6.35;4.10;;;;;;;39.92;35.52;100618.13;5011338;28;20220;-64
2023/08/20 09:41:59;;;;;;;5.50;3.85;;;;;;;40.69;34.08;100623.50;5025159;28;20229;-64
2023/08/20 09:44:29;;;;;;;6.40;3.60;;;;;;;40.36;34.03;100620.28;5028790;28;20193;-64
2023/08/20 09:46:55;;;;;;;4.70;4.00;;;;;;;40.32;33.88;100621.94;5035360;28;20194;-64
2023/08/20 09:49:22;;;;;;;5.07;3.80;;;;;;;40.28;33.11;100620.88;5033810;28;20185;-65
2023/08/20 09:51:52;;;;;;;4.40;3.65;;;;;;;41.23;31.90;100621.19;5023603;28;20759;-63
2023/08/20 09:54:25;;;;;;;7.80;3.88;;;;;;;42.11;31.21;100618.75;5013407;28;20202;-64
2023/08/20 09:56:55;;;;;;;4.80;3.55;;;;;;;42.94;29.44;100632.28;5015241;28;20193;-64
2023/08/20 09:59:21;;;;;;;4.28;3.30;;;;;;;41.60;31.48;100630.72;5015320;28;20697;-64
2023/08/20 10:01:48;;;;;;;6.90;3.70;;;;;;;43.02;30.33;100628.09;5032291;28;20316;-64
2023/08/20 10:04:15;;;;;;;5.15;3.80;;;;;;;43.84;29.46;100637.06;5024488;28;20182;-64
2023/08/20 10:06:41;;;;;;;8.23;3.42;;;;;;;42.76;30.68;100620.31;5034543;28;20189;-64
2023/08/20 10:09:06;;;;;;;5.28;3.63;;;;;;;43.59;30.72;100625.50;5034668;28;20185;-64
2023/08/20 10:11:32;;;;;;;4.28;3.60;;;;;;;43.50;28.73;100622.63;5024647;28;20542;-64
2023/08/20 10:13:57;;;;;;;6.35;3.63;;;;;;;41.20;31.30;100613.66;5018821;28;20179;-64
2023/08/20 10:16:23;;;;;;;7.18;3.55;;;;;;;40.41;32.64;100608.72;5014739;28;20656;-63
2023/08/20 10:18:49;;;;;;;3.90;3.13;;;;;;;40.01;32.61;100611.94;5014830;28;20182;-63
2023/08/20 10:21:14;;;;;;;5.60;3.63;;;;;;;41.13;30.77;100620.16;5016341;28;20763;-63
2023/08/20 10:23:44;;;;;;;3.60;3.28;;;;;;;39.78;33.14;100607.06;5022739;28;20191;-65
2023/08/20 10:26:10;;;;;;;4.40;3.60;;;;;;;38.51;35.76;100609.72;5033536;28;20268;-63
2023/08/20 10:28:36;;;;;;;6.93;3.45;;;;;;;37.89;38.74;100607.31;5034458;28;20178;-63
2023/08/20 10:31:06;;;;;;;3.58;3.25;;;;;;;40.55;33.65;100607.09;5024584;28;20291;-64
2023/08/20 10:33:34;;;;;;;4.50;3.97;;;;;;;39.69;33.78;100606.78;5009479;28;20249;-64
2023/08/20 10:36:13;;;;;;;5.65;3.95;;;;;;;40.53;32.56;100614.63;5014132;28;20261;-64
2023/08/20 10:38:39;;;;;;;4.53;3.53;;;;;;;40.70;31.17;100608.13;5014446;28;20220;-63
2023/08/20 10:41:08;;;;;;;4.88;3.30;;;;;;;39.17;33.43;100611.97;5012376;28;20264;-64
2023/08/20 10:43:38;;;;;;;3.58;3.38;;;;;;;37.50;37.62;100602.09;5021176;28;20179;-64
2023/08/20 10:46:05;;;;;;;6.78;6.10;;;;;;;35.18;46.83;100600.97;5014141;28;20217;-64
2023/08/20 10:48:35;;;;;;;4.57;3.78;;;;;;;33.85;54.34;100599.41;5014132;28;20265;-63
2023/08/20 10:51:15;;;;;;;5.35;3.67;;;;;;;34.03;52.68;100596.69;5020039;28;20343;-64
2023/08/20 10:53:43;;;;;;;5.70;4.13;;;;;;;33.43;61.25;100595.63;5040418;28;20193;-65
2023/08/20 10:56:11;;;;;;;4.68;4.25;;;;;;;31.89;71.64;100586.22;5032856;28;20216;-64
2023/08/20 10:58:40;;;;;;;6.32;3.90;;;;;;;31.46;74.99;100589.47;5033997;28;20256;-64
2023/08/20 11:01:19;;;;;;;9.30;4.15;;;;;;;31.46;74.79;100582.31;5023745;28;20720;-64
2023/08/20 11:03:45;;;;;;;5.13;4.63;;;;;;;30.20;84.48;100591.97;5020098;28;20174;-64
2023/08/20 11:06:11;;;;;;;6.50;4.57;;;;;;;30.35;87.56;100581.19;5013609;28;20171;-64
2023/08/20 11:08:38;;;;;;;5.15;4.70;;;;;;;30.64;84.24;100585.31;5029499;28;20189;-63
2023/08/20 11:11:03;;;;;;;7.07;4.93;;;;;;;30.62;86.91;100584.69;5020492;28;20308;-62
2023/08/20 11:13:31;;;;;;;6.90;4.05;;;;;;;30.31;87.54;100585.28;5041579;28;20369;-63
2023/08/20 11:15:57;;;;;;;5.68;4.65;;;;;;;30.11;82.49;100575.44;5033000;28;21031;-63